Time;durP1;ratioP1;P1;durP2;ratioP2;P2;SDS_P1;SDS_P2;PMS_P1;PMS_P2;Temp;Humidity;BMP_temperature;BMP_pressure;BME280_temperature;BME280_humidity;BME280_pressure;Samples;Min_cycle;Max_cycle;Signal;HPM_P1;HPM_P2
2023/08/30 00:01:08;;;;;;;9.77;9.07;;;14.70;99.90;;;;;;5047090;28;20177;-69
2023/08/30 00:03:33;;;;;;;10.15;9.25;;;14.60;99.90;;;;;;5045249;28;20192;-69
2023/08/30 00:06:06;;;;;;;9.63;8.83;;;14.60;99.90;;;;;;5046771;28;20205;-70
2023/08/30 00:08:33;;;;;;;9.82;8.98;;;14.50;99.90;;;;;;5048357;28;20205;-70
2023/08/30 00:10:58;;;;;;;10.13;8.77;;;14.60;99.90;;;;;;5046138;28;20267;-70
2023/08/30 00:13:29;;;;;;;10.33;9.50;;;14.70;99.90;;;;;;5047363;28;20232;-69
2023/08/30 00:15:54;;;;;;;9.07;8.45;;;14.80;99.90;;;;;;5044686;28;20280;-69
2023/08/30 00:18:21;;;;;;;9.20;8.50;;;14.70;99.90;;;;;;5045788;28;20292;-69
2023/08/30 00:20:46;;;;;;;9.85;8.93;;;14.60;99.90;;;;;;5044890;28;20473;-68
2023/08/30 00:23:12;;;;;;;9.63;8.70;;;14.90;99.90;;;;;;5048767;28;20189;-69
2023/08/30 00:25:37;;;;;;;9.43;8.73;;;14.80;99.90;;;;;;5045273;28;20669;-69
2023/08/30 00:28:03;;;;;;;9.40;8.60;;;14.60;99.90;;;;;;5046117;28;20784;-70
2023/08/30 00:30:29;;;;;;;10.30;9.50;;;14.70;99.90;;;;;;5047462;28;20200;-68
2023/08/30 00:32:54;;;;;;;9.50;8.80;;;14.80;99.90;;;;;;5046715;28;20181;-69
2023/08/30 00:35:20;;;;;;;10.50;9.60;;;14.90;99.90;;;;;;5043796;28;20220;-70
2023/08/30 00:37:46;;;;;;;10.20;9.30;;;14.50;99.90;;;;;;5045144;28;20203;-69
2023/08/30 00:40:11;;;;;;;9.80;9.00;;;14.70;99.90;;;;;;5044362;28;20547;-70
2023/08/30 00:42:37;;;;;;;9.93;9.13;;;14.70;99.90;;;;;;5046394;28;20181;-69
2023/08/30 00:45:04;;;;;;;9.53;8.70;;;14.80;99.90;;;;;;5046376;28;20182;-71
2023/08/30 00:47:29;;;;;;;9.85;9.00;;;14.60;99.90;;;;;;5045301;28;20220;-70
2023/08/30 00:49:55;;;;;;;9.83;9.03;;;14.90;99.90;;;;;;5043523;28;20182;-68
2023/08/30 00:52:21;;;;;;;10.17;9.37;;;14.90;99.90;;;;;;5044203;28;20251;-69
2023/08/30 00:54:47;;;;;;;9.93;9.13;;;14.90;99.90;;;;;;5047674;28;20828;-68
2023/08/30 00:57:12;;;;;;;9.50;8.80;;;14.50;99.90;;;;;;5042819;28;20331;-69
2023/08/30 00:59:38;;;;;;;9.60;8.80;;;14.60;99.90;;;;;;5047356;28;20774;-69
2023/08/30 01:02:04;;;;;;;10.13;9.33;;;14.50;99.90;;;;;;5045401;28;20557;-69
2023/08/30 01:04:30;;;;;;;9.77;8.95;;;14.60;99.90;;;;;;5040320;28;21846;-69
2023/08/30 01:06:56;;;;;;;10.07;9.23;;;14.60;99.90;;;;;;5043609;28;20201;-69
2023/08/30 01:09:22;;;;;;;10.27;9.47;;;14.60;99.90;;;;;;5045525;28;20830;-70
2023/08/30 01:12:20;;;;;;;10.25;9.40;;;14.50;99.90;;;;;;5043865;28;20205;-69
2023/08/30 01:15:02;;;;;;;10.10;9.20;;;14.50;99.90;;;;;;5043635;28;20221;-70
2023/08/30 01:17:29;;;;;;;9.00;8.30;;;14.60;99.90;;;;;;5044127;28;20581;-70
2023/08/30 01:20:01;;;;;;;9.95;8.95;;;14.50;99.90;;;;;;5042934;28;20173;-70
2023/08/30 01:22:27;;;;;;;8.98;8.27;;;14.70;99.90;;;;;;5047923;28;20226;-69
2023/08/30 01:25:08;;;;;;;9.40;8.60;;;14.90;99.90;;;;;;5051829;28;20185;-69
2023/08/30 01:27:36;;;;;;;9.63;8.80;;;14.70;99.90;;;;;;5051238;28;20204;-69
2023/08/30 01:30:03;;;;;;;9.30;8.45;;;14.80;99.90;;;;;;5051507;28;20196;-69
2023/08/30 01:32:30;;;;;;;9.35;8.65;;;14.50;99.90;;;;;;5051901;28;20275;-69
2023/08/30 01:34:57;;;;;;;9.40;8.70;;;14.70;99.90;;;;;;5048608;28;20208;-69
2023/08/30 01:37:25;;;;;;;9.50;8.70;;;14.50;99.90;;;;;;5050552;28;20205;-69
2023/08/30 01:39:52;;;;;;;9.68;8.75;;;14.60;99.90;;;;;;5051174;28;20185;-70
2023/08/30 01:42:21;;;;;;;9.05;8.32;;;14.90;99.90;;;;;;5051793;28;20227;-69
2023/08/30 01:44:50;;;;;;;8.68;8.07;;;14.70;99.90;;;;;;5050920;28;20189;-69
2023/08/30 01:47:16;;;;;;;9.50;8.60;;;14.70;99.90;;;;;;5052760;28;20300;-69
2023/08/30 01:49:43;;;;;;;9.90;9.00;;;14.50;99.90;;;;;;5051699;28;20254;-70
2023/08/30 01:52:10;;;;;;;9.98;9.18;;;14.50;99.90;;;;;;5051180;28;20190;-70
2023/08/30 01:54:37;;;;;;;8.70;8.00;;;14.30;99.90;;;;;;5046752;28;20282;-70
2023/08/30 01:57:03;;;;;;;9.25;8.45;;;14.40;99.90;;;;;;5052041;28;20207;-70
2023/08/30 01:59:29;;;;;;;10.27;9.47;;;14.40;99.90;;;;;;5052697;28;20181;-70
2023/08/30 02:01:56;;;;;;;9.38;8.57;;;14.40;99.90;;;;;;5054191;28;20471;-70
2023/08/30 02:04:22;;;;;;;9.52;8.82;;;14.50;99.90;;;;;;5050662;28;20202;-69
2023/08/30 02:06:56;;;;;;;9.33;8.53;;;14.50;99.90;;;;;;5052912;28;20215;-70
2023/08/30 02:09:29;;;;;;;9.60;8.80;;;14.20;99.90;;;;;;5053230;28;20192;-69
2023/08/30 02:12:00;;;;;;;9.15;8.35;;;14.20;99.90;;;;;;5051341;28;20183;-70
2023/08/30 02:14:28;;;;;;;9.75;8.90;;;14.20;99.90;;;;;;5054370;28;20220;-70
2023/08/30 02:16:56;;;;;;;9.85;9.10;;;14.10;99.90;;;;;;5053363;28;20200;-70
2023/08/30 02:19:21;;;;;;;10.30;9.50;;;14.10;99.90;;;;;;5050105;28;20290;-69
2023/08/30 02:21:48;;;;;;;9.70;8.80;;;14.00;99.90;;;;;;5057234;28;20746;-69
2023/08/30 02:24:14;;;;;;;9.77;8.98;;;14.10;99.90;;;;;;5052953;28;20497;-69
2023/08/30 02:26:39;;;;;;;9.82;9.02;;;14.40;99.90;;;;;;5043999;28;20539;-70
2023/08/30 02:29:06;;;;;;;9.67;8.87;;;14.20;99.90;;;;;;5051790;28;20180;-70
2023/08/30 02:31:31;;;;;;;9.88;8.98;;;14.10;99.90;;;;;;5050296;28;20663;-70
2023/08/30 02:33:57;;;;;;;10.40;9.50;;;14.10;99.90;;;;;;5050743;28;20269;-68
2023/08/30 02:36:23;;;;;;;9.47;8.67;;;14.20;99.90;;;;;;5045971;28;20236;-69
2023/08/30 02:38:48;;;;;;;10.83;9.87;;;14.30;99.90;;;;;;5049001;28;20841;-68
2023/08/30 02:41:14;;;;;;;10.27;9.23;;;14.30;99.90;;;;;;5046215;28;20178;-69
2023/08/30 02:43:39;;;;;;;10.03;9.10;;;14.00;99.90;;;;;;5047822;28;20178;-71
2023/08/30 02:46:05;;;;;;;10.87;9.97;;;13.80;99.90;;;;;;5049123;28;20178;-69
2023/08/30 02:48:32;;;;;;;9.87;9.07;;;14.20;99.90;;;;;;5044715;28;20216;-69
2023/08/30 02:50:57;;;;;;;9.50;8.50;;;14.10;99.90;;;;;;5049280;28;20178;-70
2023/08/30 02:53:23;;;;;;;9.47;8.60;;;14.10;99.90;;;;;;5048968;28;20227;-70
2023/08/30 02:55:49;;;;;;;10.70;9.70;;;14.10;99.90;;;;;;5047559;28;20217;-69
2023/08/30 02:58:15;;;;;;;9.50;8.63;;;14.00;99.90;;;;;;5046609;28;21038;-70
2023/08/30 03:00:41;;;;;;;9.60;8.80;;;14.00;99.90;;;;;;5047502;28;20443;-69
2023/08/30 03:03:06;;;;;;;10.23;9.33;;;13.90;99.90;;;;;;5049583;28;20428;-70
2023/08/30 03:05:32;;;;;;;10.50;9.57;;;14.20;99.90;;;;;;5044887;28;20455;-69
2023/08/30 03:07:58;;;;;;;9.27;8.57;;;13.70;99.90;;;;;;5046511;28;20670;-69
2023/08/30 03:10:24;;;;;;;8.60;8.00;;;13.90;99.90;;;;;;5048901;28;20190;-69
2023/08/30 03:12:50;;;;;;;10.18;9.30;;;13.90;99.90;;;;;;5047101;28;20698;-69
2023/08/30 03:15:15;;;;;;;10.13;9.33;;;13.80;99.90;;;;;;5048629;28;20201;-70
2023/08/30 03:17:41;;;;;;;10.10;9.30;;;14.00;99.90;;;;;;5047336;28;20208;-68
2023/08/30 03:20:07;;;;;;;9.00;8.20;;;14.10;99.90;;;;;;5047669;28;20650;-69
2023/08/30 03:22:32;;;;;;;9.43;8.68;;;14.20;99.90;;;;;;5047314;28;20606;-69
2023/08/30 03:24:58;;;;;;;10.10;9.30;;;13.90;99.90;;;;;;5052098;28;20190;-69
2023/08/30 03:27:24;;;;;;;10.07;9.07;;;14.20;99.90;;;;;;5042975;28;20212;-69
2023/08/30 03:29:50;;;;;;;9.77;9.00;;;14.00;99.90;;;;;;5047852;28;20450;-69
2023/08/30 03:32:18;;;;;;;10.20;8.97;;;13.80;99.90;;;;;;5047882;28;20474;-69
2023/08/30 03:34:47;;;;;;;9.48;8.68;;;14.10;99.90;;;;;;5048422;28;20679;-69
2023/08/30 03:37:15;;;;;;;10.40;9.60;;;14.10;99.90;;;;;;5050796;28;20205;-69
2023/08/30 03:39:41;;;;;;;10.27;9.48;;;14.00;99.90;;;;;;5048426;28;20608;-70
2023/08/30 03:42:07;;;;;;;9.95;9.10;;;13.80;99.90;;;;;;5044939;28;20181;-69
2023/08/30 03:44:33;;;;;;;8.93;8.10;;;13.80;99.90;;;;;;5045659;28;20188;-70
2023/08/30 03:46:59;;;;;;;9.57;8.77;;;14.00;99.90;;;;;;5047979;28;20836;-69
2023/08/30 03:49:24;;;;;;;11.03;9.97;;;14.00;99.90;;;;;;5044757;28;20531;-69
2023/08/30 03:51:50;;;;;;;9.90;9.00;;;13.80;99.90;;;;;;5048160;28;20521;-70
2023/08/30 03:54:18;;;;;;;10.80;9.80;;;13.90;99.90;;;;;;5047512;28;20259;-69
2023/08/30 03:56:44;;;;;;;10.93;10.05;;;14.20;99.90;;;;;;5044222;28;20278;-69
2023/08/30 03:59:11;;;;;;;10.30;9.50;;;14.00;99.90;;;;;;5048724;28;20174;-70
2023/08/30 04:01:36;;;;;;;11.60;10.57;;;13.90;99.90;;;;;;5046959;28;20549;-70
2023/08/30 04:04:02;;;;;;;10.30;9.30;;;13.90;99.90;;;;;;5049880;28;20407;-69
2023/08/30 04:06:29;;;;;;;12.70;9.90;;;14.00;99.90;;;;;;5049877;28;20304;-70
2023/08/30 04:08:54;;;;;;;10.13;9.23;;;14.00;99.90;;;;;;5045655;28;20273;-69
2023/08/30 04:11:20;;;;;;;10.77;9.77;;;14.20;99.90;;;;;;5047388;28;20258;-69
2023/08/30 04:13:45;;;;;;;9.50;8.80;;;14.20;99.90;;;;;;5050422;28;20566;-69
2023/08/30 04:16:11;;;;;;;9.90;8.90;;;14.30;99.90;;;;;;5048156;28;20270;-69
2023/08/30 04:18:37;;;;;;;10.00;8.90;;;14.00;99.90;;;;;;5046931;28;20205;-70
2023/08/30 04:21:06;;;;;;;10.60;9.57;;;14.00;99.90;;;;;;5045519;28;20523;-70
2023/08/30 04:23:31;;;;;;;11.20;10.30;;;14.10;99.90;;;;;;5046885;28;20184;-70
2023/08/30 04:25:57;;;;;;;11.10;10.20;;;14.00;99.90;;;;;;5044265;28;20181;-69
2023/08/30 04:28:23;;;;;;;11.00;10.00;;;14.20;99.90;;;;;;5044752;28;20213;-69
2023/08/30 04:30:48;;;;;;;9.73;8.93;;;14.30;99.90;;;;;;5048211;28;20280;-69
2023/08/30 04:33:14;;;;;;;10.83;9.90;;;13.90;99.90;;;;;;5043622;28;20184;-70
2023/08/30 04:35:40;;;;;;;11.75;10.75;;;14.30;99.90;;;;;;5046388;28;20295;-69
2023/08/30 04:38:06;;;;;;;11.23;10.13;;;14.10;99.90;;;;;;5044282;28;20300;-70
2023/08/30 04:40:32;;;;;;;10.70;9.80;;;14.20;99.90;;;;;;5044444;28;20188;-70
2023/08/30 04:43:01;;;;;;;10.52;9.63;;;14.40;99.90;;;;;;5048787;28;20216;-70
2023/08/30 04:45:27;;;;;;;10.57;9.68;;;14.20;99.90;;;;;;5046432;28;20614;-70
2023/08/30 04:47:53;;;;;;;10.48;9.57;;;14.10;99.90;;;;;;5043802;28;20313;-70
2023/08/30 04:50:18;;;;;;;10.20;9.30;;;14.20;99.90;;;;;;5041970;28;20954;-70
2023/08/30 04:52:44;;;;;;;10.57;9.60;;;14.30;99.90;;;;;;5044013;28;20192;-69
2023/08/30 04:55:10;;;;;;;10.73;9.83;;;14.40;99.90;;;;;;5045487;28;20205;-70
2023/08/30 04:57:35;;;;;;;10.70;9.70;;;14.40;99.90;;;;;;5043784;28;20205;-69
2023/08/30 05:00:04;;;;;;;10.37;9.53;;;14.30;99.90;;;;;;5044221;28;20178;-69
2023/08/30 05:02:30;;;;;;;11.10;10.10;;;14.60;99.90;;;;;;5042541;28;20285;-69
2023/08/30 05:04:56;;;;;;;11.02;10.13;;;14.50;99.90;;;;;;5042845;28;20193;-71
2023/08/30 05:07:22;;;;;;;11.33;10.30;;;14.30;99.90;;;;;;5044301;28;20708;-70
2023/08/30 05:09:48;;;;;;;10.93;9.93;;;14.60;99.90;;;;;;5047275;28;20182;-69
2023/08/30 05:12:13;;;;;;;11.57;10.57;;;14.50;99.90;;;;;;5042019;28;20213;-69
2023/08/30 05:14:40;;;;;;;12.23;9.90;;;14.60;99.90;;;;;;5044597;28;20215;-70
2023/08/30 05:17:06;;;;;;;11.75;10.75;;;14.40;99.90;;;;;;5043385;28;20201;-69
2023/08/30 05:19:32;;;;;;;10.30;9.50;;;14.40;99.90;;;;;;5036799;28;20181;-70
2023/08/30 05:21:57;;;;;;;10.90;9.80;;;14.30;99.90;;;;;;5043038;28;20177;-70
2023/08/30 05:24:23;;;;;;;11.13;10.03;;;14.40;99.90;;;;;;5042072;28;20646;-70
2023/08/30 05:26:49;;;;;;;10.67;9.77;;;14.40;99.90;;;;;;5041919;28;20197;-67
2023/08/30 05:29:15;;;;;;;11.73;10.73;;;15.10;99.90;;;;;;5040013;28;20178;-68
2023/08/30 05:31:41;;;;;;;10.67;9.60;;;14.50;99.90;;;;;;5045012;28;20273;-69
2023/08/30 05:34:07;;;;;;;10.63;9.75;;;14.50;99.90;;;;;;5050476;28;20490;-69
2023/08/30 05:36:32;;;;;;;11.23;10.23;;;14.40;99.90;;;;;;5043229;28;20218;-68
2023/08/30 05:38:58;;;;;;;10.50;9.50;;;14.50;99.90;;;;;;5047285;28;20205;-68
2023/08/30 05:41:24;;;;;;;11.30;10.20;;;14.50;99.90;;;;;;5040511;28;20208;-68
2023/08/30 05:43:51;;;;;;;10.15;9.25;;;14.50;99.90;;;;;;5041843;28;20312;-71
2023/08/30 05:46:16;;;;;;;11.25;10.15;;;14.50;99.90;;;;;;5037891;28;20582;-69
2023/08/30 05:48:42;;;;;;;10.40;9.40;;;14.40;99.90;;;;;;5045243;28;20280;-77
2023/08/30 05:51:07;;;;;;;11.23;10.20;;;14.80;99.90;;;;;;5044723;28;20185;-67
2023/08/30 05:53:33;;;;;;;10.43;9.57;;;14.40;99.90;;;;;;5044695;28;20264;-68
2023/08/30 05:55:59;;;;;;;10.17;9.13;;;14.70;99.90;;;;;;5045117;28;20313;-67
2023/08/30 05:58:24;;;;;;;9.77;8.97;;;14.70;99.90;;;;;;5046248;28;20214;-67
2023/08/30 06:00:50;;;;;;;9.97;9.07;;;14.70;99.90;;;;;;5044725;28;20182;-67
2023/08/30 06:03:15;;;;;;;9.83;9.03;;;14.80;99.90;;;;;;5038775;28;20182;-68
2023/08/30 06:05:42;;;;;;;9.07;8.27;;;14.90;99.90;;;;;;5046722;28;20276;-68
2023/08/30 06:08:08;;;;;;;10.70;9.27;;;15.00;99.90;;;;;;5046787;28;20205;-66
2023/08/30 06:10:38;;;;;;;10.75;9.68;;;15.00;99.90;;;;;;5036927;28;20182;-67
2023/08/30 06:13:04;;;;;;;10.23;9.32;;;15.00;99.90;;;;;;5049451;28;20745;-67
2023/08/30 06:15:30;;;;;;;10.30;9.30;;;14.90;99.90;;;;;;5051995;28;20311;-67
2023/08/30 06:17:55;;;;;;;11.33;10.20;;;15.10;99.90;;;;;;5047260;28;20216;-67
2023/08/30 06:20:21;;;;;;;11.70;10.50;;;14.80;99.90;;;;;;5045314;28;20190;-66
2023/08/30 06:22:46;;;;;;;9.67;8.77;;;15.00;99.90;;;;;;5051821;28;20533;-66
2023/08/30 06:25:12;;;;;;;10.23;9.33;;;15.30;99.90;;;;;;5050077;28;20696;-67
2023/08/30 06:27:43;;;;;;;9.20;8.40;;;15.30;99.90;;;;;;5047163;28;20198;-67
2023/08/30 06:30:10;;;;;;;9.82;8.68;;;15.30;99.90;;;;;;5046537;28;20173;-66
2023/08/30 06:32:36;;;;;;;8.98;8.27;;;15.20;99.90;;;;;;5050242;28;20256;-66
2023/08/30 06:35:01;;;;;;;10.10;8.80;;;15.20;99.90;;;;;;5045978;28;20352;-68
2023/08/30 06:37:27;;;;;;;10.10;8.60;;;15.50;99.90;;;;;;5044919;28;20198;-68
2023/08/30 06:39:52;;;;;;;9.60;8.60;;;15.40;99.90;;;;;;5038790;28;20205;-67
2023/08/30 06:42:18;;;;;;;10.30;9.27;;;15.50;99.90;;;;;;5047412;28;20543;-67
2023/08/30 06:44:44;;;;;;;9.47;8.60;;;15.40;99.90;;;;;;5047788;28;20185;-66
2023/08/30 06:47:10;;;;;;;8.68;7.90;;;15.60;99.90;;;;;;5030571;28;20220;-66
2023/08/30 06:49:35;;;;;;;9.00;8.30;;;15.50;99.90;;;;;;5042028;28;20573;-63
2023/08/30 06:52:03;;;;;;;8.57;7.77;;;15.90;99.90;;;;;;5047081;28;20186;-64
2023/08/30 06:54:30;;;;;;;8.90;8.18;;;15.90;99.90;;;;;;5042751;28;20199;-64
2023/08/30 06:57:00;;;;;;;8.25;7.55;;;15.80;99.90;;;;;;5048276;28;20737;-65
2023/08/30 06:59:26;;;;;;;8.98;8.18;;;15.70;99.90;;;;;;5045938;28;20196;-65
2023/08/30 07:01:52;;;;;;;8.57;7.88;;;15.90;99.90;;;;;;5047455;28;20220;-66
2023/08/30 07:04:17;;;;;;;8.73;8.03;;;16.00;99.90;;;;;;5040097;28;20220;-64
2023/08/30 07:06:44;;;;;;;11.20;7.70;;;16.10;99.90;;;;;;5044763;28;20236;-66
2023/08/30 07:09:11;;;;;;;8.38;7.68;;;15.90;99.90;;;;;;5045968;28;20189;-63
2023/08/30 07:11:37;;;;;;;8.15;7.55;;;16.30;99.90;;;;;;5047232;28;20265;-65
2023/08/30 07:14:03;;;;;;;9.13;8.18;;;16.20;99.90;;;;;;5047463;28;20300;-67
2023/08/30 07:16:32;;;;;;;8.70;8.00;;;16.20;99.90;;;;;;5046704;28;20220;-64
2023/08/30 07:18:58;;;;;;;9.18;8.38;;;16.40;99.90;;;;;;5044670;28;20186;-64
2023/08/30 07:21:24;;;;;;;7.68;7.05;;;16.50;99.90;;;;;;5042761;28;20181;-63
2023/08/30 07:23:49;;;;;;;8.30;7.60;;;16.60;99.90;;;;;;5044492;28;20192;-65
2023/08/30 07:26:15;;;;;;;6.90;6.40;;;16.20;99.90;;;;;;5045505;28;20293;-67
2023/08/30 07:28:41;;;;;;;7.83;7.23;;;16.40;99.90;;;;;;5043803;28;20178;-66
2023/08/30 07:31:07;;;;;;;7.60;7.00;;;16.50;99.90;;;;;;5047962;28;20190;-63
2023/08/30 07:33:33;;;;;;;7.63;7.03;;;16.50;99.90;;;;;;5044370;28;20578;-65
2023/08/30 07:35:58;;;;;;;7.63;7.03;;;16.60;99.90;;;;;;5043664;28;20741;-66
2023/08/30 07:38:24;;;;;;;7.47;6.80;;;16.40;99.90;;;;;;5046514;28;20194;-63
2023/08/30 07:40:49;;;;;;;7.57;6.77;;;16.60;99.90;;;;;;5042293;28;20193;-63
2023/08/30 07:43:15;;;;;;;6.60;6.00;;;16.60;99.90;;;;;;5047833;28;20208;-64
2023/08/30 07:45:41;;;;;;;7.33;6.50;;;16.70;99.90;;;;;;5047500;28;20243;-69
2023/08/30 07:48:06;;;;;;;7.77;7.07;;;16.50;99.90;;;;;;5047261;28;20287;-67
2023/08/30 07:50:32;;;;;;;7.27;6.67;;;16.50;99.90;;;;;;5042414;28;20638;-67
2023/08/30 07:52:58;;;;;;;7.77;6.87;;;16.60;99.90;;;;;;5046058;28;20190;-65
2023/08/30 07:55:23;;;;;;;7.57;6.97;;;16.50;99.90;;;;;;5042360;28;20310;-66
2023/08/30 07:57:49;;;;;;;7.40;6.10;;;16.60;99.90;;;;;;5044473;28;20201;-66
2023/08/30 08:00:14;;;;;;;7.13;6.63;;;16.50;99.90;;;;;;5030098;28;20190;-66
2023/08/30 08:02:40;;;;;;;8.30;6.43;;;16.80;99.90;;;;;;5045849;28;20264;-66
2023/08/30 08:05:06;;;;;;;7.83;7.23;;;16.70;99.90;;;;;;5042493;28;20202;-67
2023/08/30 08:07:32;;;;;;;7.50;6.90;;;16.60;99.90;;;;;;5044127;28;20893;-67
2023/08/30 08:09:58;;;;;;;7.20;6.60;;;17.10;99.90;;;;;;5043549;28;20448;-67
2023/08/30 08:12:24;;;;;;;7.13;6.53;;;17.30;99.90;;;;;;5039495;28;20459;-69
2023/08/30 08:14:49;;;;;;;7.83;7.03;;;16.90;99.90;;;;;;5044626;28;20852;-67
2023/08/30 08:17:15;;;;;;;6.60;6.10;;;17.40;99.90;;;;;;5047139;28;20252;-67
2023/08/30 08:19:42;;;;;;;7.30;6.70;;;17.40;99.90;;;;;;5044910;28;20192;-68
2023/08/30 08:22:08;;;;;;;7.45;6.75;;;17.50;99.90;;;;;;5046701;28;20443;-69
2023/08/30 08:24:34;;;;;;;6.80;6.13;;;17.60;99.90;;;;;;5046108;28;20605;-69
2023/08/30 08:27:01;;;;;;;6.50;6.00;;;17.60;99.90;;;;;;5043384;28;20478;-70
2023/08/30 08:29:30;;;;;;;6.93;6.32;;;17.80;99.90;;;;;;5042649;28;20177;-67
2023/08/30 08:31:56;;;;;;;5.93;5.40;;;17.90;99.90;;;;;;5043722;28;20194;-68
2023/08/30 08:34:21;;;;;;;5.77;5.30;;;18.30;99.90;;;;;;5041201;28;20190;-68
2023/08/30 08:36:47;;;;;;;6.27;5.87;;;18.20;99.90;;;;;;5043100;28;20661;-68
2023/08/30 08:39:14;;;;;;;6.20;5.70;;;18.40;99.90;;;;;;5043773;28;20177;-68
2023/08/30 08:41:44;;;;;;;5.95;5.55;;;18.30;99.90;;;;;;5042152;28;20638;-68
2023/08/30 08:44:11;;;;;;;5.88;5.38;;;18.60;99.90;;;;;;5043877;28;20192;-67
2023/08/30 08:46:39;;;;;;;5.80;5.40;;;18.70;99.90;;;;;;5044722;28;20568;-67
2023/08/30 08:49:10;;;;;;;6.22;5.72;;;18.90;99.90;;;;;;5038595;28;20626;-67
2023/08/30 08:51:36;;;;;;;5.07;4.78;;;18.80;99.90;;;;;;5043146;28;20191;-68
2023/08/30 08:54:05;;;;;;;6.25;5.75;;;19.50;99.90;;;;;;5044933;28;20664;-68
2023/08/30 08:56:33;;;;;;;5.40;5.00;;;19.40;99.90;;;;;;5043915;28;20209;-67
2023/08/30 08:58:58;;;;;;;5.20;4.80;;;19.50;99.90;;;;;;5045591;28;20694;-66
2023/08/30 09:01:25;;;;;;;4.93;4.53;;;19.70;99.90;;;;;;5045094;28;20178;-67
2023/08/30 09:03:51;;;;;;;5.15;4.50;;;20.20;99.90;;;;;;5044775;28;20658;-68
2023/08/30 09:06:18;;;;;;;4.27;3.97;;;20.30;99.90;;;;;;5043153;28;20284;-66
2023/08/30 09:08:43;;;;;;;4.50;4.10;;;20.30;99.90;;;;;;5043071;28;20212;-68
2023/08/30 09:11:09;;;;;;;4.90;4.60;;;20.20;99.90;;;;;;5046231;28;20207;-67
2023/08/30 09:13:35;;;;;;;5.30;4.80;;;20.30;99.90;;;;;;5045652;28;20192;-68
2023/08/30 09:16:02;;;;;;;4.63;4.33;;;20.10;99.90;;;;;;5047299;28;20486;-67
2023/08/30 09:18:28;;;;;;;4.75;4.45;;;20.50;99.90;;;;;;5043670;28;20206;-68
2023/08/30 09:21:13;;;;;;;4.88;4.47;;;20.40;99.90;;;;;;5047789;28;20217;-68
2023/08/30 09:23:39;;;;;;;4.20;3.90;;;20.40;99.90;;;;;;5046431;28;20205;-68
2023/08/30 09:26:05;;;;;;;4.70;4.40;;;20.60;99.90;;;;;;5041360;28;20193;-67
2023/08/30 09:28:33;;;;;;;4.40;4.00;;;20.60;99.90;;;;;;5045441;28;20213;-66
2023/08/30 09:31:00;;;;;;;4.25;3.90;;;20.60;99.90;;;;;;5045745;28;20502;-67
2023/08/30 09:33:33;;;;;;;4.90;4.47;;;20.60;99.90;;;;;;5042907;28;20193;-66
2023/08/30 09:36:00;;;;;;;4.20;3.85;;;20.60;99.90;;;;;;5045005;28;20261;-68
2023/08/30 09:38:26;;;;;;;3.90;3.60;;;20.60;99.90;;;;;;5040893;28;20606;-66
2023/08/30 09:41:02;;;;;;;5.13;4.20;;;20.90;99.90;;;;;;5040793;28;20181;-67
2023/08/30 09:43:27;;;;;;;3.75;3.45;;;21.10;99.90;;;;;;5046763;28;20443;-66
2023/08/30 09:45:53;;;;;;;4.00;3.70;;;21.10;99.90;;;;;;5051301;28;20257;-66
2023/08/30 09:48:23;;;;;;;4.33;4.03;;;21.30;99.90;;;;;;5043709;28;20217;-68
2023/08/30 09:50:54;;;;;;;3.97;3.70;;;21.40;99.90;;;;;;5048669;28;20200;-70
2023/08/30 09:53:23;;;;;;;4.10;3.45;;;21.40;99.90;;;;;;5049735;28;20902;-74
2023/08/30 09:55:50;;;;;;;3.83;3.53;;;21.30;99.90;;;;;;5045964;28;20235;-71
2023/08/30 09:58:17;;;;;;;3.20;3.00;;;21.30;99.90;;;;;;5043359;28;20889;-70
2023/08/30 10:00:43;;;;;;;3.15;2.90;;;21.40;99.30;;;;;;5043990;28;20186;-73
2023/08/30 10:03:09;;;;;;;3.15;2.85;;;21.50;99.70;;;;;;5053110;28;20182;-71
2023/08/30 10:05:36;;;;;;;2.80;2.60;;;21.50;98.80;;;;;;5048738;28;20220;-72
2023/08/30 10:08:03;;;;;;;3.03;2.83;;;21.80;98.10;;;;;;5047865;28;20208;-69
2023/08/30 10:10:31;;;;;;;2.90;2.70;;;21.90;97.60;;;;;;5048829;28;20245;-72
2023/08/30 10:12:57;;;;;;;2.80;2.60;;;21.80;97.20;;;;;;5050624;28;20193;-70
2023/08/30 10:15:26;;;;;;;3.38;3.13;;;21.90;96.80;;;;;;5053157;28;20216;-70
2023/08/30 10:17:54;;;;;;;2.75;2.55;;;21.90;95.90;;;;;;5050403;28;20265;-70
2023/08/30 10:20:20;;;;;;;2.50;2.40;;;21.90;95.70;;;;;;5046151;28;20193;-73
2023/08/30 10:22:49;;;;;;;2.80;2.53;;;22.00;95.40;;;;;;5053994;28;20173;-71
2023/08/30 10:25:20;;;;;;;2.40;2.20;;;22.10;95.40;;;;;;5047040;28;20944;-71
2023/08/30 10:27:48;;;;;;;4.82;2.28;;;22.00;95.60;;;;;;5051323;28;20292;-76
2023/08/30 10:30:15;;;;;;;2.53;2.33;;;21.80;95.80;;;;;;5046792;28;20204;-71
2023/08/30 10:32:42;;;;;;;3.37;3.17;;;22.00;96.10;;;;;;5050706;28;21005;-72
2023/08/30 10:35:15;;;;;;;2.92;2.72;;;22.00;95.20;;;;;;5048665;28;20459;-70
2023/08/30 10:37:42;;;;;;;2.70;2.50;;;21.90;95.20;;;;;;5047324;28;20209;-75
2023/08/30 10:40:09;;;;;;;2.40;2.20;;;22.00;94.40;;;;;;5047941;28;20436;-72
2023/08/30 10:42:35;;;;;;;2.28;2.08;;;21.80;92.50;;;;;;5055330;28;20431;-72
2023/08/30 10:45:07;;;;;;;2.70;2.07;;;21.90;93.20;;;;;;5047974;28;20208;-71
2023/08/30 10:47:37;;;;;;;2.67;2.47;;;22.00;93.00;;;;;;5081064;28;20452;-70
2023/08/30 10:50:08;;;;;;;2.10;1.90;;;22.20;93.00;;;;;;5040630;28;20495;-71
2023/08/30 10:52:34;;;;;;;3.13;2.60;;;22.00;92.60;;;;;;5048383;28;20458;-70
2023/08/30 10:55:08;;;;;;;2.80;2.60;;;22.30;92.90;;;;;;5045496;28;21789;-70
2023/08/30 10:57:35;;;;;;;2.27;2.17;;;22.60;93.10;;;;;;5043379;28;20478;-71
2023/08/30 11:00:19;;;;;;;3.33;3.00;;;22.60;92.00;;;;;;5049090;28;20520;-72
2023/08/30 11:02:47;;;;;;;2.87;2.57;;;22.80;91.80;;;;;;5050236;28;20526;-72
2023/08/30 11:05:14;;;;;;;2.90;2.70;;;22.70;91.10;;;;;;5052567;28;20471;-75
2023/08/30 11:07:40;;;;;;;3.13;2.93;;;22.90;91.50;;;;;;5053280;28;20459;-71
2023/08/30 11:10:07;;;;;;;2.80;2.60;;;23.10;90.90;;;;;;5052797;28;20427;-71
2023/08/30 11:12:33;;;;;;;2.60;2.50;;;23.10;90.70;;;;;;5053519;28;20276;-71
2023/08/30 11:14:59;;;;;;;2.77;2.57;;;23.20;90.30;;;;;;5052345;28;20466;-70
2023/08/30 11:17:26;;;;;;;2.90;2.70;;;23.20;90.80;;;;;;5049503;28;20452;-71
2023/08/30 11:19:58;;;;;;;2.43;2.27;;;23.20;90.20;;;;;;5048947;28;20196;-74
2023/08/30 11:22:25;;;;;;;2.67;2.47;;;23.30;90.50;;;;;;5047127;28;20991;-75
2023/08/30 11:24:50;;;;;;;2.27;2.17;;;23.30;89.30;;;;;;5047352;28;20436;-72
2023/08/30 11:27:19;;;;;;;2.50;2.30;;;23.40;89.00;;;;;;5046313;28;21011;-72
2023/08/30 11:29:45;;;;;;;2.43;2.33;;;23.40;89.70;;;;;;5045131;28;20272;-63
2023/08/30 11:32:10;;;;;;;2.30;2.10;;;23.60;89.20;;;;;;5041477;28;20641;-65
2023/08/30 11:34:36;;;;;;;2.30;2.20;;;23.60;87.30;;;;;;5044151;28;20439;-66
2023/08/30 11:37:02;;;;;;;2.30;2.20;;;23.70;85.80;;;;;;5049519;28;20766;-68
2023/08/30 11:39:31;;;;;;;2.33;2.20;;;23.60;86.50;;;;;;5045568;28;20209;-70
2023/08/30 11:41:57;;;;;;;3.03;2.73;;;23.20;86.70;;;;;;5041380;28;20182;-64
2023/08/30 11:44:29;;;;;;;3.50;3.20;;;23.20;88.00;;;;;;5049603;28;20995;-64
2023/08/30 11:47:00;;;;;;;4.45;4.05;;;22.90;90.10;;;;;;5046875;28;20456;-65
2023/08/30 11:49:29;;;;;;;3.45;3.17;;;22.20;92.00;;;;;;5045303;28;20185;-66
2023/08/30 11:51:57;;;;;;;3.30;3.10;;;21.80;92.40;;;;;;5046592;28;20193;-66
2023/08/30 11:54:24;;;;;;;3.10;2.90;;;21.50;92.60;;;;;;5045786;28;20189;-67
2023/08/30 11:56:50;;;;;;;4.97;2.90;;;21.70;93.70;;;;;;5043022;28;20228;-64
2023/08/30 11:59:20;;;;;;;2.90;2.70;;;21.40;94.00;;;;;;5045899;28;20210;-65
2023/08/30 12:01:46;;;;;;;3.38;3.17;;;20.60;94.20;;;;;;5041269;28;20700;-73
2023/08/30 12:04:12;;;;;;;3.50;3.20;;;20.30;95.80;;;;;;5046762;28;20275;-72
2023/08/30 12:06:38;;;;;;;3.07;2.87;;;19.90;97.00;;;;;;5045063;28;20594;-73
2023/08/30 12:09:05;;;;;;;3.63;3.23;;;19.70;96.90;;;;;;5046291;28;20944;-73
2023/08/30 12:11:32;;;;;;;3.80;3.50;;;19.70;99.00;;;;;;5045840;28;20560;-73
2023/08/30 12:14:04;;;;;;;3.70;3.40;;;19.40;99.90;;;;;;5044361;28;20185;-72
2023/08/30 12:16:29;;;;;;;4.00;3.72;;;19.20;99.90;;;;;;5047979;28;20209;-72
2023/08/30 12:18:55;;;;;;;4.20;3.90;;;18.60;99.90;;;;;;5050610;28;20182;-72
2023/08/30 12:21:21;;;;;;;4.00;3.70;;;18.70;99.90;;;;;;5051717;28;20200;-73
2023/08/30 12:23:46;;;;;;;4.03;3.73;;;18.70;99.90;;;;;;5043301;28;20177;-77
2023/08/30 12:26:12;;;;;;;3.50;3.30;;;18.60;99.90;;;;;;5043730;28;20181;-68
2023/08/30 12:28:44;;;;;;;3.93;3.60;;;18.60;99.90;;;;;;5046290;28;20221;-68
2023/08/30 12:31:10;;;;;;;2.70;2.60;;;18.40;99.90;;;;;;5045387;28;20289;-67
2023/08/30 12:33:37;;;;;;;3.50;3.25;;;18.30;99.90;;;;;;5045579;28;20201;-68
2023/08/30 12:36:03;;;;;;;3.42;2.55;;;18.40;99.90;;;;;;5041440;28;20227;-69
2023/08/30 12:38:30;;;;;;;3.35;3.05;;;18.60;99.90;;;;;;5043750;28;20208;-69
2023/08/30 12:40:56;;;;;;;3.40;3.20;;;18.50;99.90;;;;;;5042206;28;20596;-71